Terminal Aerodrome Forecast
Issued by NWS

Current Version | Previous Version | Text Only | Print | Product List | Glossary Off
Versions: 1 2 3 4 5 6 7 8 9 10 11 12 13 14 15 16

176
FTUS41 KPBZ 212320
TAFHLG
TAF
KHLG 212320Z 2200/2224 22008KT P6SM BKN200
     FM220700 28008KT P6SM -SHRA OVC035
     FM221000 30007KT 5SM -SHSN BKN015
     FM221400 30007KT P6SM BKN025=

USA.gov is the U.S. government's official web portal to all federal, state and local government web resources and services.